createdAt,value
2019-04-01T00:00:35.072Z,45.50
2019-04-01T00:03:04.883Z,47.07
2019-04-01T00:05:33.458Z,43.73
2019-04-01T00:08:02.015Z,46.77
2019-04-01T00:10:30.435Z,49.87
2019-04-01T00:12:58.931Z,49.30
2019-04-01T00:15:27.327Z,46.90
2019-04-01T00:17:55.745Z,51.40
2019-04-01T00:20:24.231Z,47.83
2019-04-01T00:22:52.792Z,46.70
2019-04-01T00:25:21.386Z,50.23
2019-04-01T00:27:49.850Z,48.67
2019-04-01T00:30:18.256Z,51.60
2019-04-01T00:32:46.736Z,49.50
2019-04-01T00:35:15.141Z,49.17
2019-04-01T00:37:43.827Z,46.20
2019-04-01T00:40:13.862Z,50.87
2019-04-01T00:42:44.071Z,51.63
2019-04-01T00:45:17.003Z,52.47
2019-04-01T00:47:45.419Z,48.27
2019-04-01T00:50:13.819Z,46.57
2019-04-01T00:52:42.218Z,52.87
2019-04-01T00:55:10.635Z,51.33
2019-04-01T00:57:39.353Z,48.60
2019-04-01T01:00:08.459Z,49.40
2019-04-01T01:02:36.867Z,46.67
2019-04-01T01:05:06.034Z,46.13
2019-04-01T01:07:34.453Z,53.83
2019-04-01T01:10:02.960Z,55.97
2019-04-01T01:12:31.562Z,52.67
2019-04-01T01:15:00.032Z,51.83
2019-04-01T01:17:28.458Z,48.43
2019-04-01T01:19:56.872Z,49.13
2019-04-01T01:22:25.466Z,54.20
2019-04-01T01:24:53.873Z,51.33
2019-04-01T01:27:22.267Z,50.30
2019-04-01T01:29:50.679Z,48.27
2019-04-01T01:32:19.091Z,55.27
2019-04-01T01:34:47.851Z,50.17
2019-04-01T01:37:16.317Z,47.67
2019-04-01T01:39:44.829Z,50.07
2019-04-01T01:42:13.253Z,54.97
2019-04-01T01:44:41.656Z,50.70
2019-04-01T01:47:10.292Z,49.07
2019-04-01T01:49:38.692Z,47.97
2019-04-01T01:52:07.095Z,51.67
2019-04-01T01:54:35.505Z,53.13
2019-04-01T01:57:03.976Z,50.40
2019-04-01T01:59:32.386Z,52.20
2019-04-01T02:02:00.865Z,54.47
2019-04-01T02:04:29.276Z,49.03
2019-04-01T02:06:57.665Z,49.93
2019-04-01T02:09:26.075Z,52.70
2019-04-01T02:11:54.707Z,53.83
2019-04-01T02:14:23.117Z,54.27
2019-04-01T02:16:51.575Z,52.17
2019-04-01T02:19:20.006Z,49.80
2019-04-01T02:21:48.403Z,55.77
2019-04-01T02:24:16.824Z,50.13
2019-04-01T02:26:45.274Z,51.70
2019-04-01T02:29:13.760Z,51.20
2019-04-01T02:31:42.153Z,48.13
2019-04-01T02:34:10.795Z,49.07
2019-04-01T02:36:39.320Z,55.23
2019-04-01T02:39:08.990Z,50.90
2019-04-01T02:41:37.453Z,57.63
2019-04-01T02:44:05.865Z,54.83
2019-04-01T02:46:34.363Z,51.53
2019-04-01T02:49:02.765Z,58.30
2019-04-01T02:51:31.166Z,52.53
2019-04-01T02:53:59.593Z,50.03
2019-04-01T02:56:28.277Z,51.33
2019-04-01T02:58:56.676Z,56.23
2019-04-01T03:01:25.094Z,51.80
2019-04-01T03:03:53.487Z,56.73
2019-04-01T03:06:21.893Z,58.87
2019-04-01T03:08:50.383Z,61.10
2019-04-01T03:11:18.800Z,56.20
2019-04-01T03:13:47.194Z,60.20
2019-04-01T03:16:15.611Z,55.80
2019-04-01T03:18:44.054Z,53.73
2019-04-01T03:21:12.499Z,53.13
2019-04-01T03:23:40.934Z,50.20
2019-04-01T03:26:09.422Z,52.63
2019-04-01T03:28:37.975Z,49.97
2019-04-01T03:31:06.392Z,56.57
2019-04-01T03:33:34.796Z,58.80
2019-04-01T03:36:03.217Z,55.30
2019-04-01T03:38:31.624Z,55.83
2019-04-01T03:41:00.248Z,58.03
2019-04-01T03:43:28.662Z,54.73
2019-04-01T03:45:57.134Z,60.90
2019-04-01T03:48:25.722Z,53.60
2019-04-01T03:50:54.213Z,59.13
2019-04-01T03:53:22.632Z,54.87
2019-04-01T03:55:51.042Z,58.37
2019-04-01T03:58:19.472Z,57.63
2019-04-01T04:00:47.904Z,57.73
2019-04-01T04:03:35.667Z,61.80
2019-04-01T04:06:04.092Z,49.90
2019-04-01T04:08:32.491Z,58.83
2019-04-01T04:11:00.905Z,62.57
2019-04-01T04:13:29.325Z,59.57
2019-04-01T04:15:57.928Z,69.70
2019-04-01T04:18:26.390Z,65.13
2019-04-01T04:20:54.833Z,60.40
2019-04-01T04:23:23.231Z,67.67
2019-04-01T04:25:51.670Z,65.87
2019-04-01T04:28:20.127Z,57.97
2019-04-01T04:30:48.555Z,67.50
2019-04-01T04:33:17.162Z,66.90
2019-04-01T04:35:45.577Z,70.23
2019-04-01T04:38:14.072Z,72.20
2019-04-01T04:40:42.515Z,68.73
2019-04-01T04:43:11.134Z,65.57
2019-04-01T04:45:39.622Z,68.77
2019-04-01T04:48:08.224Z,67.67
2019-04-01T04:50:36.635Z,75.90
2019-04-01T04:53:05.707Z,64.27
2019-04-01T04:55:35.183Z,73.90
2019-04-01T04:58:03.923Z,64.43
2019-04-01T05:00:32.343Z,68.27
2019-04-01T05:03:00.752Z,67.47
2019-04-01T05:05:29.159Z,78.07
2019-04-01T05:07:57.855Z,79.10
2019-04-01T05:10:26.259Z,74.40
2019-04-01T05:12:54.765Z,68.67
2019-04-01T05:15:24.090Z,74.73
2019-04-01T05:17:52.486Z,73.73
2019-04-01T05:20:21.055Z,80.57
2019-04-01T05:22:49.926Z,77.73
2019-04-01T05:25:18.487Z,93.80
2019-04-01T05:27:48.606Z,85.27
2019-04-01T05:30:17.339Z,85.17
2019-04-01T05:32:47.439Z,83.47
2019-04-01T05:35:15.927Z,84.17
2019-04-01T05:37:45.722Z,92.83
2019-04-01T05:40:14.970Z,87.63
2019-04-01T05:42:43.374Z,87.07
2019-04-01T05:45:11.911Z,88.77
2019-04-01T05:47:42.039Z,98.70
2019-04-01T05:50:10.550Z,98.50
2019-04-01T05:52:38.964Z,86.37
2019-04-01T05:55:09.021Z,91.63
2019-04-01T05:57:38.010Z,84.60
2019-04-01T06:00:07.274Z,87.43
2019-04-01T06:02:35.678Z,88.43
2019-04-01T06:05:06.525Z,77.43
2019-04-01T06:07:35.610Z,80.43
2019-04-01T06:10:07.031Z,81.07
2019-04-01T06:12:36.230Z,74.53
2019-04-01T06:15:06.754Z,76.70
2019-04-01T06:17:35.256Z,82.57
2019-04-01T06:20:05.300Z,79.57
2019-04-01T06:22:34.327Z,73.73
2019-04-01T06:25:02.952Z,65.37
2019-04-01T06:27:31.905Z,71.17
2019-04-01T06:30:00.803Z,61.97
2019-04-01T06:32:29.212Z,66.60
2019-04-01T06:34:57.694Z,69.87
2019-04-01T06:37:26.118Z,56.17
2019-04-01T06:39:54.540Z,57.70
2019-04-01T06:42:23.003Z,58.17
2019-04-01T06:44:51.418Z,57.33
2019-04-01T06:47:19.950Z,53.30
2019-04-01T06:49:48.435Z,51.43
2019-04-01T06:52:16.851Z,52.47
2019-04-01T06:54:45.362Z,46.37
2019-04-01T06:57:13.811Z,50.67
2019-04-01T06:59:42.312Z,53.80
2019-04-01T07:02:10.975Z,53.03
2019-04-01T07:04:39.460Z,49.17
2019-04-01T07:07:18.828Z,43.60
2019-04-01T07:09:38.948Z,48.50
2019-04-01T07:12:07.363Z,44.97
2019-04-01T07:14:36.029Z,44.57
2019-04-01T07:17:04.687Z,46.80
2019-04-01T07:19:33.291Z,46.37
2019-04-01T07:22:01.784Z,43.50
2019-04-01T07:24:30.267Z,45.87
2019-04-01T07:26:58.687Z,43.87
2019-04-01T07:29:27.115Z,47.80
2019-04-01T07:31:55.798Z,42.33
2019-04-01T07:34:25.095Z,47.57
2019-04-01T07:36:53.524Z,51.33
2019-04-01T07:39:22.647Z,44.57
2019-04-01T07:41:51.077Z,43.03
2019-04-01T07:44:19.483Z,42.73
2019-04-01T07:46:47.901Z,43.80
2019-04-01T07:49:16.581Z,41.90
2019-04-01T07:51:45.300Z,44.53
2019-04-01T07:54:13.706Z,42.67
2019-04-01T07:56:42.263Z,39.67
2019-04-01T07:59:10.689Z,46.63
2019-04-01T08:01:39.092Z,42.47
2019-04-01T08:04:07.780Z,41.63
2019-04-01T08:06:36.181Z,43.13
2019-04-01T08:09:07.202Z,39.43
2019-04-01T08:11:35.851Z,42.23
2019-04-01T08:14:04.604Z,41.13
2019-04-01T08:16:33.076Z,41.73
2019-04-01T08:19:01.521Z,45.03
2019-04-01T08:21:30.040Z,38.33
2019-04-01T08:23:58.574Z,40.37
2019-04-01T08:26:27.075Z,40.23
2019-04-01T08:28:55.587Z,40.87
2019-04-01T08:31:24.073Z,41.00
2019-04-01T08:33:52.725Z,38.43
2019-04-01T08:36:21.162Z,44.10
2019-04-01T08:38:49.887Z,42.77
2019-04-01T08:41:18.430Z,36.47
2019-04-01T08:43:46.991Z,39.87
2019-04-01T08:46:15.403Z,47.43
2019-04-01T08:48:44.091Z,39.53
2019-04-01T08:51:12.507Z,40.07
2019-04-01T08:53:40.959Z,40.93
2019-04-01T08:56:09.424Z,39.70
2019-04-01T08:58:37.823Z,41.87
2019-04-01T09:01:06.252Z,43.60
2019-04-01T09:03:34.896Z,39.10
2019-04-01T09:06:03.443Z,40.47
2019-04-01T09:08:33.757Z,42.73
2019-04-01T09:11:02.345Z,36.33
2019-04-01T09:13:31.311Z,34.23
2019-04-01T09:16:00.659Z,35.63
2019-04-01T09:18:29.081Z,40.63
2019-04-01T09:20:57.479Z,37.10
2019-04-01T09:23:25.915Z,39.83
2019-04-01T09:25:54.316Z,38.17
2019-04-01T09:28:22.712Z,40.43
2019-04-01T09:30:51.138Z,38.20
2019-04-01T09:33:19.569Z,39.97
2019-04-01T09:35:48.251Z,41.47
2019-04-01T09:38:16.693Z,40.73
2019-04-01T09:40:45.427Z,35.43
2019-04-01T09:43:14.267Z,38.30
2019-04-01T09:45:43.013Z,38.23
2019-04-01T09:48:11.441Z,38.07
2019-04-01T09:50:39.864Z,35.13
2019-04-01T09:53:08.356Z,39.60
2019-04-01T09:55:36.827Z,35.40
2019-04-01T09:58:05.246Z,36.90
2019-04-01T10:00:33.715Z,35.27
2019-04-01T10:03:02.118Z,36.67
2019-04-01T10:05:33.321Z,39.13
2019-04-01T10:08:01.800Z,42.80
2019-04-01T10:10:30.326Z,36.23
2019-04-01T10:12:58.868Z,39.53
2019-04-01T10:15:27.424Z,36.43
2019-04-01T10:17:55.822Z,36.93
2019-04-01T10:20:24.252Z,38.80
2019-04-01T10:22:52.658Z,32.10
2019-04-01T10:25:21.422Z,38.07
2019-04-01T10:27:50.035Z,32.80
2019-04-01T10:30:19.233Z,34.47
2019-04-01T10:32:47.646Z,34.10
2019-04-01T10:35:35.408Z,38.57
2019-04-01T10:38:03.885Z,35.23
2019-04-01T10:40:32.367Z,34.63
2019-04-01T10:43:00.791Z,35.67
2019-04-01T10:45:29.214Z,35.67
2019-04-01T10:47:57.724Z,33.93
2019-04-01T10:50:26.643Z,33.97
2019-04-01T10:52:55.076Z,35.60
2019-04-01T10:55:23.485Z,33.53
2019-04-01T10:57:53.954Z,37.40
2019-04-01T11:00:22.922Z,32.73
2019-04-01T11:02:51.437Z,36.77
2019-04-01T11:05:20.025Z,31.93
2019-04-01T11:07:48.500Z,37.50
2019-04-01T11:10:17.375Z,34.13
2019-04-01T11:12:45.778Z,34.37
2019-04-01T11:15:15.687Z,30.20
2019-04-01T11:17:44.522Z,36.33
2019-04-01T11:20:13.288Z,32.47
2019-04-01T11:22:41.758Z,34.90
2019-04-01T11:25:10.307Z,31.33
2019-04-01T11:27:38.856Z,33.47
2019-04-01T11:30:08.541Z,34.37
2019-04-01T11:32:37.358Z,32.33
2019-04-01T11:35:13.362Z,33.37
2019-04-01T11:37:42.083Z,27.90
2019-04-01T11:40:12.231Z,30.47
2019-04-01T11:42:44.459Z,29.23
2019-04-01T11:45:13.916Z,28.83
2019-04-01T11:47:43.855Z,29.90
2019-04-01T11:50:13.003Z,35.23
2019-04-01T11:52:41.834Z,30.47
2019-04-01T11:55:10.973Z,27.40
2019-04-01T11:57:40.537Z,28.17
2019-04-01T12:00:13.290Z,28.03
2019-04-01T12:02:42.183Z,26.20
2019-04-01T12:05:12.086Z,30.40
2019-04-01T12:07:41.052Z,29.37
2019-04-01T12:10:10.240Z,28.73
2019-04-01T12:12:38.757Z,28.73
2019-04-01T12:15:11.506Z,29.50
2019-04-01T12:17:41.859Z,29.60
2019-04-01T12:20:11.111Z,28.67
2019-04-01T12:22:45.474Z,28.30
2019-04-01T12:25:11.656Z,26.20
2019-04-01T12:27:40.423Z,29.47
2019-04-01T12:30:09.027Z,25.50
2019-04-01T12:32:37.444Z,28.70
2019-04-01T12:35:06.632Z,26.40
2019-04-01T12:37:35.360Z,26.97
2019-04-01T12:40:07.146Z,26.83
2019-04-01T12:42:35.580Z,27.97
2019-04-01T12:45:06.224Z,27.50
2019-04-01T12:47:35.194Z,26.30
2019-04-01T12:50:04.278Z,28.67
2019-04-01T12:52:32.934Z,27.23
2019-04-01T12:55:01.347Z,24.30
2019-04-01T12:57:29.771Z,27.40
2019-04-01T12:59:58.504Z,25.70
2019-04-01T13:02:26.951Z,20.90
2019-04-01T13:04:55.452Z,21.83
2019-04-01T13:07:23.999Z,19.20
2019-04-01T13:09:52.427Z,21.23
2019-04-01T13:12:21.035Z,19.63
2019-04-01T13:14:49.509Z,21.80
2019-04-01T13:17:17.970Z,19.80
2019-04-01T13:19:46.469Z,20.77
2019-04-01T13:22:14.885Z,21.33
2019-04-01T13:24:43.332Z,21.73
2019-04-01T13:27:11.783Z,24.30
2019-04-01T13:29:40.224Z,18.70
2019-04-01T13:32:08.655Z,20.77
2019-04-01T13:34:37.109Z,19.20
2019-04-01T13:37:05.803Z,19.97
2019-04-01T13:39:34.412Z,17.63
2019-04-01T13:42:02.815Z,20.10
2019-04-01T13:44:37.232Z,20.53
2019-04-01T13:47:01.441Z,20.30
2019-04-01T13:49:29.935Z,20.00
2019-04-01T13:51:59.174Z,17.73
2019-04-01T13:54:28.516Z,20.37
2019-04-01T13:56:56.939Z,19.70
2019-04-01T13:59:25.416Z,16.77
2019-04-01T14:01:55.894Z,18.73
2019-04-01T14:04:24.003Z,17.33
2019-04-01T14:06:52.510Z,17.03
2019-04-01T14:09:21.401Z,17.07
2019-04-01T14:11:49.839Z,19.47
2019-04-01T14:14:19.502Z,18.83
2019-04-01T14:16:47.917Z,18.73
2019-04-01T14:19:16.320Z,19.53
2019-04-01T14:21:45.035Z,21.57
2019-04-01T14:24:13.448Z,16.97
2019-04-01T14:26:41.879Z,19.93
2019-04-01T14:29:10.403Z,14.97
2019-04-01T14:31:39.897Z,17.47
2019-04-01T14:34:13.319Z,16.73
2019-04-01T14:36:38.508Z,17.47
2019-04-01T14:39:07.671Z,18.47
2019-04-01T14:41:36.143Z,16.70
2019-04-01T14:44:04.651Z,16.43
2019-04-01T14:46:33.070Z,16.00
2019-04-01T14:49:02.760Z,16.47
2019-04-01T14:51:31.799Z,15.97
2019-04-01T14:54:00.204Z,19.50
2019-04-01T14:56:28.698Z,17.90
2019-04-01T14:58:57.179Z,16.97
2019-04-01T15:01:25.907Z,17.97
2019-04-01T15:03:54.341Z,16.27
2019-04-01T15:06:23.217Z,18.10
2019-04-01T15:08:51.595Z,17.27
2019-04-01T15:11:20.026Z,14.33
2019-04-01T15:13:48.417Z,16.53
2019-04-01T15:16:16.931Z,17.13
2019-04-01T15:18:45.545Z,17.37
2019-04-01T15:21:14.331Z,17.33
2019-04-01T15:23:42.838Z,16.13
2019-04-01T15:26:11.232Z,14.87
2019-04-01T15:28:39.638Z,16.33
2019-04-01T15:31:08.161Z,15.77
2019-04-01T15:33:36.659Z,13.93
2019-04-01T15:36:05.195Z,17.73
2019-04-01T15:38:33.682Z,15.43
2019-04-01T15:41:02.083Z,15.37
2019-04-01T15:43:30.657Z,14.83
2019-04-01T15:45:59.293Z,16.53
2019-04-01T15:48:27.753Z,14.07
2019-04-01T15:50:56.225Z,15.80
2019-04-01T15:53:24.648Z,15.17
2019-04-01T15:55:53.070Z,15.40
2019-04-01T15:58:21.591Z,17.97
2019-04-01T16:00:50.103Z,14.70
2019-04-01T16:03:18.571Z,15.47
2019-04-01T16:05:47.083Z,15.80
2019-04-01T16:08:16.860Z,14.53
2019-04-01T16:10:47.156Z,16.40
2019-04-01T16:13:15.789Z,16.63
2019-04-01T16:15:44.692Z,18.17
2019-04-01T16:18:13.095Z,17.00
2019-04-01T16:20:41.500Z,16.40
2019-04-01T16:23:10.111Z,16.50
2019-04-01T16:25:38.563Z,19.03
2019-04-01T16:28:07.052Z,17.97
2019-04-01T16:30:35.459Z,17.13
2019-04-01T16:33:04.368Z,16.07
2019-04-01T16:35:33.093Z,15.73
2019-04-01T16:38:01.495Z,15.80
2019-04-01T16:40:29.925Z,17.47
2019-04-01T16:42:58.330Z,18.67
2019-04-01T16:45:26.822Z,15.63
2019-04-01T16:47:55.232Z,17.57
2019-04-01T16:50:23.902Z,15.07
2019-04-01T16:52:52.317Z,16.23
2019-04-01T16:55:20.723Z,18.23
2019-04-01T16:57:49.211Z,16.37
2019-04-01T17:00:18.592Z,15.67
2019-04-01T17:02:47.021Z,17.80
2019-04-01T17:05:17.929Z,17.47
2019-04-01T17:07:46.559Z,22.30
2019-04-01T17:10:23.826Z,16.17
2019-04-01T17:12:52.256Z,18.60
2019-04-01T17:15:21.486Z,16.57
2019-04-01T17:17:50.393Z,14.40
2019-04-01T17:20:18.803Z,16.07
2019-04-01T17:22:47.442Z,19.07
2019-04-01T17:25:15.976Z,18.60
2019-04-01T17:27:44.370Z,16.60
2019-04-01T17:30:17.873Z,18.00
2019-04-01T17:32:46.256Z,16.10
2019-04-01T17:35:14.889Z,18.87
2019-04-01T17:37:43.624Z,19.77
2019-04-01T17:40:16.878Z,22.33
2019-04-01T17:42:45.455Z,19.93
2019-04-01T17:45:26.554Z,18.03
2019-04-01T17:47:54.965Z,16.43
2019-04-01T17:50:23.582Z,19.93
2019-04-01T17:52:53.777Z,19.60
2019-04-01T17:55:22.758Z,20.37
2019-04-01T17:57:51.159Z,18.13
2019-04-01T18:00:21.270Z,21.97
2019-04-01T18:02:49.687Z,18.73
2019-04-01T18:05:19.648Z,16.03
2019-04-01T18:07:48.073Z,16.97
2019-04-01T18:10:16.683Z,16.47
2019-04-01T18:12:45.300Z,19.23
2019-04-01T18:15:14.278Z,16.33
2019-04-01T18:17:42.823Z,17.10
2019-04-01T18:20:11.471Z,19.57
2019-04-01T18:22:40.068Z,17.60
2019-04-01T18:25:09.175Z,15.90
2019-04-01T18:27:37.621Z,17.57
2019-04-01T18:30:09.802Z,17.97
2019-04-01T18:32:38.297Z,17.47
2019-04-01T18:35:07.835Z,15.37
2019-04-01T18:37:36.324Z,19.83
2019-04-01T18:40:05.396Z,18.23
2019-04-01T18:42:33.812Z,19.07
2019-04-01T18:45:02.235Z,20.00
2019-04-01T18:47:30.648Z,18.13
2019-04-01T18:49:59.070Z,20.87
2019-04-01T18:52:27.552Z,21.67
2019-04-01T18:54:55.983Z,18.10
2019-04-01T18:57:24.442Z,19.23
2019-04-01T18:59:52.917Z,20.13
2019-04-01T19:02:21.531Z,20.20
2019-04-01T19:04:50.037Z,20.73
2019-04-01T19:07:21.660Z,17.17
2019-04-01T19:09:48.596Z,19.67
2019-04-01T19:12:17.100Z,21.03
2019-04-01T19:14:45.581Z,20.60
2019-04-01T19:17:14.501Z,18.77
2019-04-01T19:19:43.415Z,21.47
2019-04-01T19:22:11.886Z,20.47
2019-04-01T19:24:40.309Z,20.63
2019-04-01T19:27:08.758Z,19.40
2019-04-01T19:29:37.424Z,18.57
2019-04-01T19:32:05.901Z,19.90
2019-04-01T19:34:36.008Z,20.13
2019-04-01T19:37:04.590Z,20.67
2019-04-01T19:39:32.993Z,20.33
2019-04-01T19:42:01.447Z,18.03
2019-04-01T19:44:29.851Z,19.70
2019-04-01T19:46:58.336Z,21.13
2019-04-01T19:49:26.731Z,20.30
2019-04-01T19:51:56.286Z,21.13
2019-04-01T19:54:45.044Z,20.27
2019-04-01T19:57:13.489Z,18.53
2019-04-01T19:59:41.883Z,20.27
2019-04-01T20:02:10.391Z,19.17
2019-04-01T20:04:39.055Z,22.60
2019-04-01T20:07:07.575Z,21.77
2019-04-01T20:09:35.975Z,22.70
2019-04-01T20:12:04.460Z,21.23
2019-04-01T20:14:33.321Z,20.10
2019-04-01T20:17:02.211Z,18.57
2019-04-01T20:19:30.924Z,20.00
2019-04-01T20:21:59.447Z,22.73
2019-04-01T20:24:30.618Z,19.63
2019-04-01T20:26:59.036Z,21.40
2019-04-01T20:29:30.123Z,26.53
2019-04-01T20:31:58.089Z,24.90
2019-04-01T20:34:27.659Z,22.77
2019-04-01T20:36:56.047Z,21.60
2019-04-01T20:39:25.262Z,21.27
2019-04-01T20:41:54.280Z,23.93
2019-04-01T20:44:22.793Z,21.13
2019-04-01T20:46:51.184Z,21.77
2019-04-01T20:49:19.582Z,19.77
2019-04-01T20:51:48.037Z,21.97
2019-04-01T20:54:16.628Z,22.77
2019-04-01T20:56:45.106Z,24.17
2019-04-01T20:59:13.908Z,22.27
2019-04-01T21:01:42.375Z,24.53
2019-04-01T21:04:10.782Z,20.63
2019-04-01T21:06:39.187Z,23.97
2019-04-01T21:09:08.653Z,25.23
2019-04-01T21:11:37.087Z,25.97
2019-04-01T21:14:05.894Z,25.43
2019-04-01T21:16:34.314Z,22.33
2019-04-01T21:19:02.730Z,23.30
2019-04-01T21:21:31.568Z,23.37
2019-04-01T21:24:00.013Z,22.90
2019-04-01T21:26:28.455Z,21.87
2019-04-01T21:28:57.059Z,24.87
2019-04-01T21:31:25.479Z,22.60
2019-04-01T21:33:53.907Z,24.63
2019-04-01T21:36:22.394Z,25.00
2019-04-01T21:38:50.955Z,23.77
2019-04-01T21:41:20.490Z,23.07
2019-04-01T21:43:49.528Z,24.37
2019-04-01T21:46:17.954Z,22.70
2019-04-01T21:48:46.369Z,23.80
2019-04-01T21:51:14.783Z,23.43
2019-04-01T21:53:43.187Z,24.93
2019-04-01T21:56:11.695Z,24.17
2019-04-01T21:58:40.094Z,21.77
2019-04-01T22:01:09.070Z,25.27
2019-04-01T22:03:37.851Z,23.03
2019-04-01T22:06:06.246Z,23.17
2019-04-01T22:08:35.203Z,26.10
2019-04-01T22:11:04.722Z,25.20
2019-04-01T22:13:33.127Z,24.77
2019-04-01T22:16:01.819Z,26.03
2019-04-01T22:18:32.745Z,26.13
2019-04-01T22:21:00.332Z,26.13
2019-04-01T22:23:28.803Z,25.00
2019-04-01T22:25:58.172Z,25.00
2019-04-01T22:28:27.588Z,25.20
2019-04-01T22:30:55.984Z,26.53
2019-04-01T22:33:24.492Z,26.20
2019-04-01T22:35:52.894Z,26.47
2019-04-01T22:38:25.425Z,25.93
2019-04-01T22:40:51.463Z,28.77
2019-04-01T22:43:19.867Z,31.10
2019-04-01T22:45:49.130Z,29.50
2019-04-01T22:48:17.766Z,32.17
2019-04-01T22:50:46.167Z,32.80
2019-04-01T22:53:14.673Z,33.90
2019-04-01T22:55:43.148Z,32.07
2019-04-01T22:58:11.563Z,31.63
2019-04-01T23:00:40.083Z,31.60
2019-04-01T23:03:08.480Z,31.73
2019-04-01T23:05:37.368Z,35.43
2019-04-01T23:08:06.178Z,36.30
2019-04-01T23:10:34.762Z,38.17
2019-04-01T23:13:03.169Z,39.60
2019-04-01T23:15:31.687Z,38.97
2019-04-01T23:18:00.059Z,35.83
2019-04-01T23:20:28.483Z,37.43
2019-04-01T23:22:57.765Z,35.37
2019-04-01T23:25:26.716Z,34.63
2019-04-01T23:27:55.479Z,35.57
2019-04-01T23:30:24.447Z,36.37
2019-04-01T23:32:52.856Z,35.43
2019-04-01T23:35:21.270Z,30.43
2019-04-01T23:37:49.662Z,34.83
2019-04-01T23:40:19.459Z,33.50
2019-04-01T23:42:47.941Z,34.63
2019-04-01T23:45:37.203Z,38.17
2019-04-01T23:48:05.634Z,32.83
2019-04-01T23:50:53.362Z,34.60
2019-04-01T23:53:21.847Z,31.00
2019-04-01T23:55:50.247Z,35.07
2019-04-01T23:58:18.639Z,34.73
